• Join FlightAware (Why Join?)
  • Login
  • US Flag 
07:11AM EDT


 

Airport Tracker/Info


-or-


 

Live Flight TrackerFlight Track Log ✈ RPA3392 ✈ 01-May-2013 ✈ KDCA - KALB

Flight Track Log - Related Links

Times and Time Zones

All times are in EDT time to prevent confusion due to time zone crossing. See the RPA3392 flight status page for this flight to view local times or setup timezone preferences in your user account.

Time Position Orientation Groundspeed Altitude Reporting Facility
EDT Latitude Longitude Course Direction KTS MPH feet Rate Location/Type
10:34PM 38.8000 -77.0333 83° East 164 189 2,100  Level Potomac TRACON
10:35PM 38.7500 -77.0333 180° South 260 299 4,100 2,880 Climbing Potomac TRACON
10:36PM 39.0214 -76.5524 67° East  Level FlightAware Approximate
10:36PM 38.7333 -76.9500 104° East 281 323 8,000  Level Potomac TRACON
10:37PM 39.0678 -76.4307 61° Northeast  Level FlightAware Approximate
10:37PM 38.8642 -76.9406 North 300 345 12,900  Level Washington Center
10:38PM 39.1167 -76.3113 90° East  Level FlightAware Approximate
10:38PM 38.9536 -76.9450 358° North 320 368 14,100  Level Washington Center
10:39PM 39.1524 -76.1926 83° East  Level FlightAware Approximate
10:39PM 39.0292 -76.8983 26° Northeast 297 342 15,600  Level Washington Center
10:40PM 39.0492 -76.7783 78° East 278 320 18,600 1,680 Climbing Washington Center
10:41PM 39.0442 -76.6661 93° East 278 320 19,000 420 Climbing Washington Center
10:42PM 39.0306 -76.5508 99° East 291 335 19,500 660 Climbing Washington Center
10:43PM 39.0564 -76.4256 75° East 318 366 20,400 1,440 Climbing Washington Center
10:44PM 39.0906 -76.2897 72° East 360 414 22,400 1,260 Climbing Washington Center
10:45PM 39.1267 -76.1508 71° East 383 441 23,000 300 Climbing Washington Center
10:46PM 39.1628 -76.0119 71° East 400 460 23,000  Level Washington Center
10:47PM 39.2006 -75.8756 70° East 400 460 23,000  Level Washington Center
10:48PM 39.2758 -75.7739 46° Northeast 389 448 23,000  Level Washington Center
10:49PM 39.3550 -75.6722 45° Northeast 389 448 23,000  Level Washington Center
10:50PM 39.4344 -75.5672 46° Northeast 389 448 23,000  Level Washington Center
10:51PM 39.5133 -75.4650 45° Northeast 394 453 23,000  Level Washington Center
10:52PM 39.5903 -75.3653 45° Northeast 394 453 23,000  Level Washington Center
10:53PM 39.6694 -75.2600 46° Northeast 394 453 23,000 60 Level Washington Center
10:54PM 39.7158 -75.1969 46° Northeast 398 458 23,100 600 Climbing New York Center
10:55PM 39.7886 -75.0881 49° Northeast 403 464 24,000 420 Climbing New York Center
10:56PM 39.8656 -74.9792 47° Northeast 398 458 24,000  Level New York Center
10:57PM 39.9400 -74.8753 47° Northeast 398 458 24,000  Level New York Center
10:58PM 40.0125 -74.7683 48° Northeast 398 458 24,000  Level New York Center
10:59PM 40.0847 -74.6614 49° Northeast 398 458 24,000  Level New York Center
11:00PM 40.1614 -74.5542 47° Northeast 398 458 24,000  Level New York Center
11:01PM 40.2331 -74.4631 44° Northeast 403 464 24,000  Level New York Center
11:02PM 40.3169 -74.3722 40° Northeast 397 457 24,000  Level New York Center
11:04PM 40.5158 -74.1572 39° Northeast 404 465 24,000  Level Boston Center
11:05PM 40.6006 -74.0636 40° Northeast 399 459 24,000  Level Boston Center
11:06PM 40.6872 -73.9811 36° Northeast 389 448 24,000  Level Boston Center
11:07PM 40.7697 -73.8869 41° Northeast 389 448 24,000  Level Boston Center
11:08PM 40.8522 -73.7928 41° Northeast 389 448 24,000  Level Boston Center
11:09PM 40.9347 -73.6928 42° Northeast 389 448 24,000  Level Boston Center
11:10PM 41.0192 -73.5872 43° Northeast 389 448 24,000 -180 Level Boston Center
11:11PM 41.0844 -73.5086 42° Northeast 384 442 23,700 -960 Descending Boston Center
11:12PM 41.2078 -73.4747 12° North 369 425 22,100 -1,560 Descending Boston Center
11:13PM 41.3139 -73.5014 349° North 364 419 20,600 -1,080 Descending Boston Center
11:14PM 41.4178 -73.5225 351° North 364 419 20,000 -900 Descending Boston Center
11:15PM 41.5197 -73.5464 350° North 369 425 18,800 -1,200 Descending Boston Center
11:16PM 41.6217 -73.5647 352° North 369 425 17,700 -1,260 Descending Boston Center
11:17PM 41.7194 -73.5886 350° North 369 425 16,300 -1,560 Descending Boston Center
11:18PM 41.8169 -73.6072 352° North 364 419 14,600 -1,560 Descending Boston Center
11:19PM 41.9147 -73.6286 351° North 359 413 13,200 -1,500 Descending Boston Center
11:20PM 41.9397 -73.6375 345° North 350 403 12,700 -1,740 Descending Boston Center
11:20PM 42.0083 -73.6500 352° North 343 395 11,500 -1,020 Descending Boston Center
11:21PM 42.0936 -73.6683 351° North 343 395 11,000 -300 Descending Boston Center
11:22PM 42.1850 -73.6869 351° North 338 389 11,000 -300 Level Boston Center
11:23PM 42.2767 -73.7000 354° North 333 383 10,500 -1,080 Descending Boston Center
11:24PM 42.3706 -73.6933 North 264 304 8,800 -1,560 Descending Boston Center
11:25PM 42.4289 -73.6917 North 268 308 7,400 -1,800 Descending Boston Center
11:26PM 42.5103 -73.6906 North 268 308 5,500 -1,740 Descending Boston Center
11:27PM 42.5769 -73.6919 359° North 268 308 4,000 -780 Descending Boston Center
11:28PM 42.6583 -73.6881 North 268 308 4,000 -300 Level Boston Center
11:29PM 42.7250 -73.6864 North 248 285 3,500 -780 Descending Boston Center
11:30PM 42.7875 -73.6850 North 229 264 2,500 -780 Descending Boston Center
11:31PM 42.8225 -73.7194 324° Northwest 169 194 2,000 -540 Descending Boston Center